Time;durP1;ratioP1;P1;durP2;ratioP2;P2;SDS_P1;SDS_P2;PMS_P1;PMS_P2;Temp;Humidity;BMP_temperature;BMP_pressure;BME280_temperature;BME280_humidity;BME280_pressure;Samples;Min_cycle;Max_cycle;Signal;HPM_P1;HPM_P2
2022/01/29 00:01:31;;;;;;;33.50;17.15;;;7.00;99.90;;;;;;4937861;29;20105;-78
2022/01/29 00:03:57;;;;;;;42.30;19.02;;;7.10;99.90;;;;;;4937257;29;20498;-78
2022/01/29 00:06:22;;;;;;;35.88;16.52;;;7.10;99.90;;;;;;4937155;29;20043;-78
2022/01/29 00:08:48;;;;;;;42.47;19.52;;;7.10;99.90;;;;;;4953326;29;20035;-78
2022/01/29 00:11:16;;;;;;;41.17;18.42;;;7.10;99.90;;;;;;4954444;29;20432;-78
2022/01/29 00:13:42;;;;;;;37.30;17.52;;;7.10;99.90;;;;;;4953378;29;20054;-78
2022/01/29 00:16:08;;;;;;;35.53;16.30;;;7.10;99.90;;;;;;4954103;28;20031;-78
2022/01/29 00:18:35;;;;;;;34.53;15.93;;;7.10;99.90;;;;;;4937050;29;20486;-78
2022/01/29 00:21:01;;;;;;;36.80;16.85;;;7.10;99.90;;;;;;4937476;29;20066;-78
2022/01/29 00:23:26;;;;;;;34.78;17.35;;;7.10;99.90;;;;;;4953475;29;20434;-78
2022/01/29 00:25:52;;;;;;;43.00;18.52;;;7.10;99.90;;;;;;4953914;29;20051;-78
2022/01/29 00:28:18;;;;;;;33.42;17.08;;;7.10;99.90;;;;;;4937010;29;20134;-78
2022/01/29 00:30:44;;;;;;;38.28;17.65;;;7.00;99.90;;;;;;4936914;29;20122;-78
2022/01/29 00:33:11;;;;;;;37.10;18.05;;;7.00;99.90;;;;;;4953177;29;20442;-78
2022/01/29 00:35:38;;;;;;;36.47;17.05;;;7.00;99.90;;;;;;4953900;28;20048;-78
2022/01/29 00:38:06;;;;;;;35.72;17.65;;;7.00;99.90;;;;;;4953176;29;20050;-78
2022/01/29 00:40:33;;;;;;;37.83;18.20;;;7.00;99.90;;;;;;4952789;29;20047;-78
2022/01/29 00:42:59;;;;;;;36.20;16.60;;;7.00;99.90;;;;;;4952998;29;20039;-79
2022/01/29 00:45:25;;;;;;;37.60;18.20;;;7.00;99.90;;;;;;4936815;29;20208;-78
2022/01/29 00:47:51;;;;;;;38.65;18.40;;;7.00;99.90;;;;;;4951923;28;20133;-78
2022/01/29 00:50:17;;;;;;;42.15;18.20;;;6.90;99.90;;;;;;4936909;29;20075;-79
2022/01/29 00:52:42;;;;;;;33.75;16.50;;;6.90;99.90;;;;;;4954204;28;20039;-78
2022/01/29 00:55:10;;;;;;;35.63;17.25;;;6.90;99.90;;;;;;4953609;28;20110;-78
2022/01/29 00:57:39;;;;;;;36.33;17.83;;;6.90;99.90;;;;;;4953767;29;20039;-78
2022/01/29 01:00:09;;;;;;;37.00;17.80;;;6.90;99.90;;;;;;4952882;29;20390;-78
2022/01/29 01:02:35;;;;;;;39.38;18.23;;;6.80;99.90;;;;;;4952843;29;20439;-78
2022/01/29 01:05:01;;;;;;;40.17;18.85;;;6.80;99.90;;;;;;4953752;28;20131;-78
2022/01/29 01:07:27;;;;;;;34.03;17.70;;;6.80;99.90;;;;;;4955160;29;20058;-79
2022/01/29 01:09:52;;;;;;;42.47;19.65;;;6.70;99.90;;;;;;4938738;29;20071;-79
2022/01/29 01:12:18;;;;;;;35.75;17.35;;;6.80;99.90;;;;;;4956007;28;20043;-79
2022/01/29 01:14:44;;;;;;;28.38;14.07;;;6.80;99.90;;;;;;4955848;29;20055;-79
2022/01/29 01:17:09;;;;;;;36.95;16.60;;;6.70;99.90;;;;;;4955387;28;20040;-79
2022/01/29 01:19:35;;;;;;;31.77;16.50;;;6.80;99.90;;;;;;4954188;29;20486;-79
2022/01/29 01:22:01;;;;;;;39.28;18.85;;;6.80;99.90;;;;;;4955416;28;20043;-79
2022/01/29 01:24:27;;;;;;;33.17;15.88;;;6.80;99.90;;;;;;4954754;29;20524;-79
2022/01/29 01:26:52;;;;;;;46.33;19.67;;;6.80;99.90;;;;;;4954264;29;20130;-79
2022/01/29 01:29:18;;;;;;;39.85;18.27;;;6.80;99.90;;;;;;4938323;29;20054;-79
2022/01/29 01:31:45;;;;;;;36.17;16.58;;;6.80;99.90;;;;;;4938156;29;20047;-79
2022/01/29 01:34:12;;;;;;;37.38;18.45;;;6.80;99.90;;;;;;4954238;29;20047;-79
2022/01/29 01:36:47;;;;;;;41.92;18.27;;;6.80;99.90;;;;;;4938034;29;20172;-79
2022/01/29 01:39:17;;;;;;;47.22;19.42;;;6.80;99.90;;;;;;4954550;29;20075;-79
2022/01/29 01:41:52;;;;;;;41.08;19.50;;;6.80;99.90;;;;;;4937936;29;20126;-79
2022/01/29 01:44:18;;;;;;;33.42;16.35;;;6.80;99.90;;;;;;4938170;29;20046;-79
2022/01/29 01:46:43;;;;;;;41.95;17.67;;;6.80;99.90;;;;;;4938011;29;20035;-79
2022/01/29 01:49:09;;;;;;;38.63;17.67;;;6.80;99.90;;;;;;4938152;29;20035;-79
2022/01/29 01:51:35;;;;;;;42.38;18.02;;;6.80;99.90;;;;;;4953181;29;20039;-79
2022/01/29 01:54:01;;;;;;;38.60;17.70;;;6.80;99.90;;;;;;4953949;29;20047;-79
2022/01/29 01:56:27;;;;;;;43.00;18.13;;;6.80;99.90;;;;;;4953774;29;20046;-79
2022/01/29 01:58:56;;;;;;;37.83;18.15;;;6.80;99.90;;;;;;4954076;28;20045;-79
2022/01/29 02:01:21;;;;;;;45.90;19.38;;;6.80;99.90;;;;;;4958594;28;20093;-79
2022/01/29 02:03:47;;;;;;;38.63;16.60;;;6.80;99.90;;;;;;4941471;29;20035;-79
2022/01/29 02:06:13;;;;;;;39.42;16.58;;;6.80;99.90;;;;;;4956731;29;20487;-79
2022/01/29 02:08:39;;;;;;;43.15;18.92;;;6.80;99.90;;;;;;4958124;28;20462;-79
2022/01/29 02:11:05;;;;;;;40.15;18.17;;;6.80;99.90;;;;;;4958586;28;20071;-79
2022/01/29 02:13:32;;;;;;;34.47;17.67;;;6.80;99.90;;;;;;4957652;29;20039;-79
2022/01/29 02:15:58;;;;;;;36.20;16.33;;;6.80;99.90;;;;;;4956977;29;20413;-79
2022/01/29 02:18:23;;;;;;;36.47;17.08;;;6.80;99.90;;;;;;4941325;29;20039;-79
2022/01/29 02:20:49;;;;;;;36.25;15.98;;;6.80;99.90;;;;;;4958124;29;20043;-79
2022/01/29 02:23:17;;;;;;;40.25;18.25;;;6.90;99.90;;;;;;4941114;29;20479;-79
2022/01/29 02:25:45;;;;;;;37.00;16.48;;;6.90;99.90;;;;;;4941330;29;20058;-79
2022/01/29 02:28:13;;;;;;;37.40;15.90;;;6.90;99.90;;;;;;4957138;29;20098;-79
2022/01/29 02:30:42;;;;;;;37.47;17.15;;;6.90;99.90;;;;;;4940580;29;20129;-80
2022/01/29 02:33:11;;;;;;;38.25;17.02;;;6.90;99.90;;;;;;4939819;29;20442;-80
2022/01/29 02:35:39;;;;;;;43.85;18.52;;;6.90;99.90;;;;;;4955104;29;20043;-80
2022/01/29 02:38:05;;;;;;;39.03;17.27;;;6.90;99.90;;;;;;4939365;29;20040;-81
2022/01/29 02:40:35;;;;;;;44.78;18.38;;;6.80;99.90;;;;;;4939478;29;20046;-81
2022/01/29 02:43:16;;;;;;;41.65;18.83;;;6.90;99.90;;;;;;4955764;29;20439;-80
2022/01/29 02:45:43;;;;;;;39.97;18.13;;;6.80;99.90;;;;;;4938959;29;20394;-78
2022/01/29 02:48:10;;;;;;;39.60;17.25;;;6.90;99.90;;;;;;4955080;29;20636;-79
2022/01/29 02:50:35;;;;;;;42.55;17.63;;;6.80;99.90;;;;;;4938855;29;20051;-78
2022/01/29 02:53:01;;;;;;;41.58;17.95;;;6.90;99.90;;;;;;4955940;29;20039;-78
2022/01/29 02:55:28;;;;;;;41.20;16.45;;;6.90;99.90;;;;;;4954289;29;20055;-79
2022/01/29 02:57:54;;;;;;;41.92;17.60;;;6.90;99.90;;;;;;4954653;29;20067;-79
2022/01/29 03:00:19;;;;;;;38.55;16.98;;;6.80;99.90;;;;;;4938384;29;20061;-79
2022/01/29 03:02:45;;;;;;;35.05;15.48;;;6.90;99.90;;;;;;4938605;29;20389;-79
2022/01/29 03:05:10;;;;;;;42.38;17.92;;;6.80;99.90;;;;;;4954206;29;20458;-79
2022/01/29 03:07:38;;;;;;;37.83;16.02;;;6.90;99.90;;;;;;4938837;29;20066;-79
2022/01/29 03:10:04;;;;;;;37.00;17.02;;;6.90;99.90;;;;;;4940280;28;20096;-79
2022/01/29 03:12:30;;;;;;;41.78;18.80;;;6.90;99.90;;;;;;4956615;29;20051;-79
2022/01/29 03:14:55;;;;;;;42.00;17.02;;;6.90;99.90;;;;;;4957190;29;20050;-79
2022/01/29 03:17:21;;;;;;;36.10;16.00;;;6.90;99.90;;;;;;4956740;29;20054;-79
2022/01/29 03:19:47;;;;;;;38.28;17.25;;;6.90;99.90;;;;;;4957975;28;20047;-79
2022/01/29 03:22:12;;;;;;;47.63;17.98;;;7.00;99.90;;;;;;4956490;29;20039;-79
2022/01/29 03:24:39;;;;;;;42.70;17.38;;;7.00;99.90;;;;;;4957122;29;20057;-79
2022/01/29 03:27:05;;;;;;;41.67;18.88;;;7.00;99.90;;;;;;4940807;29;20047;-79
2022/01/29 03:29:30;;;;;;;42.25;15.88;;;7.00;99.90;;;;;;4940507;29;20050;-79
2022/01/29 03:31:56;;;;;;;38.53;15.52;;;7.00;99.90;;;;;;4958048;29;20035;-79
2022/01/29 03:34:21;;;;;;;33.13;14.98;;;7.10;99.90;;;;;;4940585;29;20043;-79
2022/01/29 03:36:47;;;;;;;36.70;14.93;;;7.10;99.90;;;;;;4940220;29;20146;-79
2022/01/29 03:39:12;;;;;;;38.53;16.13;;;7.10;99.90;;;;;;4956097;29;20078;-79
2022/01/29 03:41:38;;;;;;;33.50;13.82;;;7.10;99.90;;;;;;4956489;29;20042;-79
2022/01/29 03:44:06;;;;;;;40.50;15.57;;;7.20;99.90;;;;;;4957706;29;20078;-79
2022/01/29 03:46:32;;;;;;;33.28;14.20;;;7.30;99.90;;;;;;4956935;28;20511;-79
2022/01/29 03:48:59;;;;;;;31.65;11.98;;;7.30;99.90;;;;;;4956616;28;20046;-80
2022/01/29 03:51:25;;;;;;;31.20;12.93;;;7.30;99.90;;;;;;4954516;29;20442;-81
2022/01/29 03:53:51;;;;;;;35.97;13.60;;;7.40;99.90;;;;;;4938318;29;20094;-81
2022/01/29 03:56:17;;;;;;;32.45;14.00;;;7.40;99.90;;;;;;4938156;29;20044;-81
2022/01/29 03:58:44;;;;;;;34.72;14.30;;;7.40;99.90;;;;;;4955296;28;20040;-81
2022/01/29 04:01:09;;;;;;;34.38;13.65;;;7.50;99.90;;;;;;4937841;29;20035;-81
2022/01/29 04:03:35;;;;;;;37.92;12.93;;;7.50;99.90;;;;;;4938361;29;20043;-80
2022/01/29 04:06:01;;;;;;;28.13;12.30;;;7.60;99.90;;;;;;4954096;29;20434;-80
2022/01/29 04:08:26;;;;;;;30.80;12.05;;;7.60;99.90;;;;;;4938449;29;20042;-80
2022/01/29 04:10:52;;;;;;;31.98;11.13;;;7.70;99.90;;;;;;4954212;29;20047;-80
2022/01/29 04:13:23;;;;;;;30.88;13.23;;;7.70;99.90;;;;;;4954033;29;20046;-81
2022/01/29 04:15:49;;;;;;;34.00;12.10;;;7.70;99.90;;;;;;4937563;29;20053;-80
2022/01/29 04:18:14;;;;;;;34.67;13.05;;;7.70;99.90;;;;;;4954282;29;20035;-80
2022/01/29 04:20:40;;;;;;;28.90;11.45;;;7.80;99.90;;;;;;4953785;29;20094;-80
2022/01/29 04:23:06;;;;;;;32.75;12.68;;;7.80;99.90;;;;;;4953907;28;20107;-80
2022/01/29 04:25:32;;;;;;;24.38;11.38;;;7.80;99.90;;;;;;4937354;29;20051;-80
2022/01/29 04:27:57;;;;;;;29.40;12.23;;;7.80;99.90;;;;;;4955016;29;20041;-80
2022/01/29 04:30:29;;;;;;;29.60;12.75;;;7.80;99.90;;;;;;4953535;29;20090;-79
2022/01/29 04:33:01;;;;;;;27.50;10.20;;;7.80;99.90;;;;;;4955268;29;20098;-79
2022/01/29 04:35:27;;;;;;;29.52;12.55;;;7.80;99.90;;;;;;4956389;28;20039;-79
2022/01/29 04:37:52;;;;;;;23.65;11.30;;;7.90;99.90;;;;;;4955189;29;20043;-79
2022/01/29 04:40:19;;;;;;;30.88;12.35;;;7.90;99.90;;;;;;4955922;29;20042;-79
2022/01/29 04:42:45;;;;;;;30.70;12.25;;;7.90;99.90;;;;;;4939377;29;20434;-79
2022/01/29 04:45:11;;;;;;;30.80;11.75;;;7.90;99.90;;;;;;4955288;29;20054;-79
2022/01/29 04:47:36;;;;;;;33.30;11.95;;;7.90;99.90;;;;;;4939591;29;20043;-79
2022/01/29 04:50:03;;;;;;;33.60;10.90;;;7.90;99.90;;;;;;4938703;29;20051;-79
2022/01/29 04:52:29;;;;;;;26.42;10.35;;;7.90;99.90;;;;;;4954954;29;20039;-81
2022/01/29 04:54:54;;;;;;;26.77;11.02;;;8.00;99.90;;;;;;4955377;29;20050;-81
2022/01/29 04:57:20;;;;;;;22.38;10.05;;;8.00;99.90;;;;;;4938631;29;20040;-81
2022/01/29 04:59:45;;;;;;;18.95;10.07;;;8.00;99.90;;;;;;4954546;29;20094;-81
2022/01/29 05:02:11;;;;;;;32.78;11.75;;;8.00;99.90;;;;;;4954708;29;20050;-81
2022/01/29 05:04:36;;;;;;;27.42;10.95;;;8.00;99.90;;;;;;4954630;29;20071;-81
2022/01/29 05:07:02;;;;;;;27.02;11.27;;;8.10;99.90;;;;;;4954717;29;20082;-81
2022/01/29 05:09:28;;;;;;;22.67;8.73;;;8.10;99.90;;;;;;4954599;29;20047;-81
2022/01/29 05:11:54;;;;;;;25.35;11.98;;;8.10;99.90;;;;;;4938447;29;20129;-81
2022/01/29 05:14:35;;;;;;;27.13;10.98;;;8.00;99.90;;;;;;4938712;29;20050;-81
2022/01/29 05:26:49;;;;;;;22.90;10.60;;;8.00;99.90;;;;;;4954560;29;20053;-81
2022/01/29 05:28:30;;;;;;;25.38;11.13;;;8.10;99.90;;;;;;4954294;29;20117;-82
2022/01/29 05:30:56;;;;;;;27.42;11.63;;;8.20;99.90;;;;;;4955950;29;20035;-81
2022/01/29 05:33:21;;;;;;;32.05;11.73;;;8.20;99.90;;;;;;4955107;28;20049;-81
2022/01/29 05:35:47;;;;;;;19.75;10.05;;;8.20;99.90;;;;;;4957778;29;20053;-81
2022/01/29 05:38:12;;;;;;;18.33;9.73;;;8.20;99.90;;;;;;4958456;29;20271;-82
2022/01/29 05:40:38;;;;;;;27.27;10.68;;;8.20;99.90;;;;;;4942749;29;20041;-80
2022/01/29 05:43:03;;;;;;;20.25;8.52;;;8.20;99.90;;;;;;4942572;29;20145;-80
2022/01/29 05:45:29;;;;;;;24.63;10.70;;;8.30;99.90;;;;;;4942095;29;20067;-79
2022/01/29 05:47:55;;;;;;;22.85;9.77;;;8.30;99.90;;;;;;4958549;29;20039;-79
2022/01/29 05:50:21;;;;;;;26.77;10.15;;;8.30;99.90;;;;;;4958386;29;20043;-79
2022/01/29 05:52:46;;;;;;;25.55;10.90;;;8.30;99.90;;;;;;4958762;29;20070;-80
2022/01/29 05:55:12;;;;;;;29.33;11.05;;;8.30;99.90;;;;;;4941921;29;20059;-80
2022/01/29 05:57:37;;;;;;;26.38;11.70;;;8.30;99.90;;;;;;4958515;29;20075;-79
2022/01/29 06:00:05;;;;;;;21.52;11.32;;;8.30;99.90;;;;;;4959136;29;20081;-80
2022/01/29 06:02:30;;;;;;;25.63;10.60;;;8.30;99.90;;;;;;4959115;29;20046;-79
2022/01/29 06:04:56;;;;;;;23.10;10.40;;;8.30;99.90;;;;;;4942318;29;20039;-79
2022/01/29 06:07:21;;;;;;;17.85;9.80;;;8.30;99.90;;;;;;4957860;29;20043;-81
2022/01/29 06:09:48;;;;;;;20.38;10.45;;;8.40;99.90;;;;;;4941975;29;20069;-81
2022/01/29 06:12:14;;;;;;;18.08;9.30;;;8.40;99.90;;;;;;4958004;29;20047;-81
2022/01/29 06:14:40;;;;;;;20.38;10.32;;;8.40;99.90;;;;;;4957388;29;20055;-81
2022/01/29 06:17:05;;;;;;;19.92;8.95;;;8.40;99.90;;;;;;4957863;29;20067;-81
2022/01/29 06:19:31;;;;;;;16.52;8.90;;;8.40;99.90;;;;;;4957482;29;20043;-82
2022/01/29 06:21:56;;;;;;;20.55;9.05;;;8.40;99.90;;;;;;4957583;29;20047;-81
2022/01/29 06:24:22;;;;;;;22.20;8.77;;;8.40;99.90;;;;;;4957496;29;20138;-81
2022/01/29 06:26:48;;;;;;;18.33;8.23;;;8.40;99.90;;;;;;4957523;29;20049;-81
2022/01/29 06:29:13;;;;;;;18.30;8.05;;;8.50;99.90;;;;;;4957532;29;20134;-81
2022/01/29 06:31:39;;;;;;;18.85;8.55;;;8.50;99.90;;;;;;4957063;29;20043;-81
2022/01/29 06:34:05;;;;;;;23.58;8.35;;;8.50;99.90;;;;;;4941510;29;20058;-81
2022/01/29 06:36:30;;;;;;;18.65;8.13;;;8.40;99.90;;;;;;4941249;29;20085;-81
2022/01/29 06:38:56;;;;;;;17.48;8.07;;;8.50;99.90;;;;;;4957730;29;20515;-81
2022/01/29 06:41:22;;;;;;;18.88;8.00;;;8.50;99.90;;;;;;4941482;29;20129;-81
2022/01/29 06:43:47;;;;;;;16.58;7.18;;;8.50;99.90;;;;;;4957305;29;20039;-81
2022/01/29 06:46:13;;;;;;;16.67;7.28;;;8.50;99.90;;;;;;4939689;29;20558;-81
2022/01/29 06:48:38;;;;;;;15.70;6.53;;;8.50;99.90;;;;;;4941606;29;20201;-82
2022/01/29 06:51:04;;;;;;;21.05;7.78;;;8.50;99.90;;;;;;4941051;29;20442;-81
2022/01/29 06:53:29;;;;;;;14.88;6.20;;;8.50;99.90;;;;;;4941089;29;20039;-81
2022/01/29 06:55:55;;;;;;;17.60;6.88;;;8.60;99.90;;;;;;4940442;29;20410;-81
2022/01/29 06:58:20;;;;;;;14.45;6.93;;;8.60;99.90;;;;;;4941681;29;20514;-81
2022/01/29 07:00:46;;;;;;;13.02;6.70;;;8.60;99.90;;;;;;4957125;29;20039;-81
2022/01/29 07:03:11;;;;;;;18.05;7.00;;;8.60;99.90;;;;;;4958355;28;20509;-81
2022/01/29 07:05:37;;;;;;;14.20;6.82;;;8.60;99.90;;;;;;4957197;29;20418;-81
2022/01/29 07:08:04;;;;;;;12.85;6.22;;;8.70;99.90;;;;;;4940480;29;20051;-79
2022/01/29 07:10:30;;;;;;;19.45;6.78;;;8.70;99.90;;;;;;4955725;28;20479;-79
2022/01/29 07:12:55;;;;;;;11.65;6.18;;;8.70;99.90;;;;;;4954687;29;20082;-79
2022/01/29 07:15:21;;;;;;;17.20;6.07;;;8.70;99.90;;;;;;4940066;29;20043;-81
2022/01/29 07:17:46;;;;;;;15.30;7.07;;;8.80;99.90;;;;;;4942716;29;20402;-80
2022/01/29 07:20:12;;;;;;;12.02;6.78;;;8.70;99.90;;;;;;4957973;29;20043;-80
2022/01/29 07:22:39;;;;;;;12.63;7.05;;;8.70;99.90;;;;;;4942067;29;20054;-80
2022/01/29 07:25:05;;;;;;;12.13;5.97;;;8.70;99.90;;;;;;4957698;29;20043;-82
2022/01/29 07:27:31;;;;;;;15.63;7.40;;;8.70;99.90;;;;;;4959332;29;20054;-81
2022/01/29 07:29:56;;;;;;;19.00;6.18;;;8.80;99.90;;;;;;4959887;29;20126;-80
2022/01/29 07:32:22;;;;;;;11.25;6.57;;;8.70;99.90;;;;;;4958771;29;20047;-81
2022/01/29 07:34:47;;;;;;;16.50;7.32;;;8.70;99.90;;;;;;4941819;29;20044;-82
2022/01/29 07:37:13;;;;;;;13.07;7.55;;;8.70;99.90;;;;;;4959532;29;20039;-81
2022/01/29 07:39:39;;;;;;;13.45;6.70;;;8.70;99.90;;;;;;4959892;29;20039;-81
2022/01/29 07:42:04;;;;;;;15.35;6.70;;;8.70;99.90;;;;;;4940686;29;20035;-82
2022/01/29 07:44:30;;;;;;;14.00;6.07;;;8.70;99.90;;;;;;4957093;29;20069;-80
2022/01/29 07:46:56;;;;;;;20.33;7.25;;;8.70;99.90;;;;;;4956947;29;20058;-82
2022/01/29 07:49:21;;;;;;;12.82;6.10;;;8.70;99.90;;;;;;4956091;29;20514;-81
2022/01/29 07:51:47;;;;;;;11.93;6.68;;;8.70;99.90;;;;;;4956208;28;20035;-82
2022/01/29 07:54:12;;;;;;;20.27;9.18;;;8.70;99.90;;;;;;4954847;29;20453;-82
2022/01/29 07:56:38;;;;;;;16.00;7.30;;;8.70;99.90;;;;;;4938283;29;20039;-81
2022/01/29 07:59:04;;;;;;;15.27;6.80;;;8.70;99.90;;;;;;4939413;29;20039;-81
2022/01/29 08:01:30;;;;;;;15.73;6.55;;;8.70;99.90;;;;;;4938509;29;20051;-82
2022/01/29 08:03:55;;;;;;;18.27;8.02;;;8.70;99.90;;;;;;4952072;29;20769;-81
2022/01/29 08:06:23;;;;;;;16.15;7.18;;;8.70;99.90;;;;;;4937955;29;20036;-81
2022/01/29 08:08:49;;;;;;;22.38;7.25;;;8.70;99.90;;;;;;4941453;29;20065;-81
2022/01/29 08:11:16;;;;;;;12.18;6.10;;;8.70;99.90;;;;;;4937637;29;20039;-82
2022/01/29 08:13:43;;;;;;;14.32;6.22;;;8.80;99.90;;;;;;4938363;29;20094;-82
2022/01/29 08:16:09;;;;;;;15.13;6.00;;;8.80;99.90;;;;;;4953672;29;20055;-82
2022/01/29 08:18:34;;;;;;;12.85;6.57;;;8.80;99.90;;;;;;4954557;29;20130;-82
2022/01/29 08:21:00;;;;;;;13.25;6.25;;;8.80;99.90;;;;;;4938159;29;20035;-82
2022/01/29 08:23:25;;;;;;;17.17;6.13;;;8.80;99.90;;;;;;4955552;28;20035;-82
2022/01/29 08:25:51;;;;;;;13.25;5.65;;;8.90;99.90;;;;;;4954438;29;20043;-81
2022/01/29 08:28:16;;;;;;;14.15;6.05;;;8.90;99.90;;;;;;4954763;29;20043;-82
2022/01/29 08:30:42;;;;;;;14.20;5.75;;;8.90;99.90;;;;;;4941084;29;20047;-82
2022/01/29 08:33:08;;;;;;;16.02;5.63;;;8.90;99.90;;;;;;4957470;28;20039;-82
2022/01/29 08:35:34;;;;;;;9.40;4.32;;;8.90;99.90;;;;;;4955116;29;20042;-82
2022/01/29 08:38:00;;;;;;;17.38;6.07;;;9.00;99.90;;;;;;4938597;29;20122;-83
2022/01/29 08:40:26;;;;;;;12.45;4.60;;;9.00;99.90;;;;;;4954548;29;20115;-83
2022/01/29 08:42:52;;;;;;;9.63;4.55;;;9.00;99.90;;;;;;4956582;28;20054;-83
2022/01/29 08:45:18;;;;;;;12.35;4.68;;;9.00;99.90;;;;;;4954764;29;20078;-83
2022/01/29 08:47:44;;;;;;;9.63;5.13;;;9.10;99.90;;;;;;4954682;29;20047;-82
2022/01/29 08:50:11;;;;;;;15.77;4.85;;;9.10;99.90;;;;;;4953120;29;20054;-82
2022/01/29 08:52:38;;;;;;;10.05;4.13;;;9.10;99.90;;;;;;4953485;29;20086;-82
2022/01/29 08:55:05;;;;;;;10.50;4.57;;;9.10;99.90;;;;;;4952661;29;20529;-82
2022/01/29 08:57:31;;;;;;;13.20;4.85;;;9.10;99.90;;;;;;4937319;29;20036;-82
2022/01/29 08:59:57;;;;;;;10.77;4.80;;;9.20;99.90;;;;;;4952639;29;20043;-83
2022/01/29 09:02:23;;;;;;;33.58;19.23;;;9.10;99.90;;;;;;4954792;28;20071;-79
2022/01/29 09:04:49;;;;;;;16.67;6.38;;;9.10;99.90;;;;;;4955718;28;20114;-80
2022/01/29 09:07:15;;;;;;;10.65;4.82;;;9.10;99.90;;;;;;4938672;29;20402;-78
2022/01/29 09:09:44;;;;;;;8.77;4.38;;;9.10;99.90;;;;;;4956811;28;20055;-78
2022/01/29 09:12:10;;;;;;;13.43;4.50;;;9.20;99.90;;;;;;4941906;29;20137;-77
2022/01/29 09:14:36;;;;;;;17.30;6.35;;;9.10;99.90;;;;;;4957850;28;20040;-76
2022/01/29 09:17:02;;;;;;;9.55;4.38;;;9.10;99.90;;;;;;4956288;29;20047;-78
2022/01/29 09:19:27;;;;;;;12.75;4.85;;;9.10;99.90;;;;;;4956551;29;20066;-77
2022/01/29 09:21:53;;;;;;;13.05;4.45;;;9.10;99.90;;;;;;4957607;29;20046;-78
2022/01/29 09:24:18;;;;;;;9.10;4.32;;;9.20;99.90;;;;;;4957451;29;20094;-77
2022/01/29 09:26:44;;;;;;;10.40;4.50;;;9.20;99.90;;;;;;4956540;29;20106;-77
2022/01/29 09:29:10;;;;;;;10.95;4.50;;;9.20;99.90;;;;;;4940449;29;20062;-77
2022/01/29 09:31:35;;;;;;;11.20;4.75;;;9.20;99.90;;;;;;4957128;29;20089;-78
2022/01/29 09:34:02;;;;;;;10.57;4.75;;;9.20;99.90;;;;;;4940539;29;20042;-83
2022/01/29 09:36:28;;;;;;;10.57;5.20;;;9.20;99.90;;;;;;4941880;29;20039;-82
2022/01/29 09:38:54;;;;;;;7.63;3.90;;;9.30;99.90;;;;;;4961321;29;20060;-82
2022/01/29 09:41:26;;;;;;;10.35;4.40;;;9.20;99.90;;;;;;4945007;29;20482;-82
2022/01/29 09:43:53;;;;;;;7.57;4.85;;;9.30;99.90;;;;;;4944623;29;20118;-82
2022/01/29 09:46:18;;;;;;;13.25;4.35;;;9.30;99.90;;;;;;4956712;29;20086;-77
2022/01/29 09:48:45;;;;;;;9.73;4.82;;;9.40;99.90;;;;;;4940028;29;20039;-78
2022/01/29 09:51:14;;;;;;;11.13;4.40;;;9.40;99.90;;;;;;4939946;29;20039;-77
2022/01/29 09:53:43;;;;;;;8.93;3.58;;;9.40;99.90;;;;;;4940225;29;20071;-76
2022/01/29 09:56:09;;;;;;;7.95;4.20;;;9.40;99.90;;;;;;4940063;29;20450;-79
2022/01/29 09:58:35;;;;;;;12.48;3.67;;;9.50;99.90;;;;;;4939890;29;20466;-78
2022/01/29 10:01:00;;;;;;;12.32;4.57;;;9.50;99.90;;;;;;4939916;29;20042;-77
2022/01/29 10:03:26;;;;;;;8.95;4.22;;;9.50;99.90;;;;;;4939735;29;20036;-76
2022/01/29 10:05:54;;;;;;;6.55;3.75;;;9.50;99.90;;;;;;4956528;29;20035;-77
2022/01/29 10:08:21;;;;;;;13.15;3.53;;;9.60;99.90;;;;;;4955867;29;20081;-77
2022/01/29 10:10:49;;;;;;;9.82;3.50;;;9.60;99.90;;;;;;4957852;29;20098;-80
2022/01/29 10:13:32;;;;;;;6.53;3.40;;;9.60;99.90;;;;;;4961521;29;20035;-80
2022/01/29 10:16:06;;;;;;;9.23;2.88;;;9.60;99.90;;;;;;4957653;29;20039;-82
2022/01/29 10:18:33;;;;;;;7.18;3.40;;;9.60;99.90;;;;;;4957132;29;20063;-82
2022/01/29 10:21:17;;;;;;;7.22;3.05;;;9.70;99.90;;;;;;4957154;28;20075;-82
2022/01/29 10:23:44;;;;;;;6.25;2.50;;;9.70;99.90;;;;;;4958248;29;20051;-83
2022/01/29 10:26:10;;;;;;;8.40;3.13;;;9.70;99.90;;;;;;4958531;29;20051;-82
2022/01/29 10:28:37;;;;;;;7.63;3.05;;;9.70;99.90;;;;;;4956000;29;20123;-82
2022/01/29 10:31:07;;;;;;;6.68;2.83;;;9.70;99.90;;;;;;4956500;29;20047;-82
2022/01/29 10:33:38;;;;;;;5.63;2.42;;;9.70;99.90;;;;;;4957610;28;20054;-81
2022/01/29 10:36:06;;;;;;;7.82;3.17;;;9.70;99.90;;;;;;4956381;29;20419;-82
2022/01/29 10:38:41;;;;;;;11.60;2.85;;;9.70;99.90;;;;;;4956213;29;20114;-82
2022/01/29 10:41:25;;;;;;;5.47;2.72;;;9.80;99.90;;;;;;4956044;29;20043;-82
2022/01/29 10:43:58;;;;;;;9.70;2.58;;;9.80;99.90;;;;;;4956019;29;20050;-81
2022/01/29 10:46:30;;;;;;;8.00;2.30;;;9.80;99.90;;;;;;4957511;28;20043;-82
2022/01/29 10:48:56;;;;;;;4.60;1.98;;;9.90;99.90;;;;;;4956626;28;20043;-82
2022/01/29 10:51:22;;;;;;;8.40;3.60;;;9.90;99.90;;;;;;4955776;29;20060;-82
2022/01/29 10:53:48;;;;;;;10.40;2.85;;;10.00;99.90;;;;;;4956731;28;20042;-82
2022/01/29 10:56:14;;;;;;;8.23;2.63;;;10.00;99.90;;;;;;4956622;29;20044;-82
2022/01/29 10:58:45;;;;;;;8.70;2.35;;;10.10;99.90;;;;;;4957344;28;20613;-82
2022/01/29 11:01:13;;;;;;;10.48;2.53;;;10.10;99.90;;;;;;4955693;29;20078;-82
2022/01/29 11:03:38;;;;;;;7.22;2.03;;;10.20;99.90;;;;;;4955777;29;20035;-82
2022/01/29 11:06:05;;;;;;;4.20;2.10;;;10.20;99.90;;;;;;4939316;29;20055;-82
2022/01/29 11:08:31;;;;;;;5.32;1.92;;;10.20;99.90;;;;;;4956595;28;20047;-82
2022/01/29 11:10:57;;;;;;;9.98;1.73;;;10.30;99.90;;;;;;4939563;29;20047;-82
2022/01/29 11:13:23;;;;;;;5.68;1.77;;;10.30;99.90;;;;;;4956039;29;20043;-82
2022/01/29 11:15:52;;;;;;;6.43;1.80;;;10.30;99.90;;;;;;4955091;29;20039;-82
2022/01/29 11:18:18;;;;;;;4.07;1.45;;;10.40;99.90;;;;;;4956958;29;20046;-82
2022/01/29 11:20:44;;;;;;;4.43;2.00;;;10.40;99.90;;;;;;4956972;29;20095;-81
2022/01/29 11:23:10;;;;;;;3.47;1.63;;;10.50;99.90;;;;;;4939465;29;20043;-82
2022/01/29 11:25:36;;;;;;;4.30;1.98;;;10.50;99.90;;;;;;4956674;29;20047;-82
2022/01/29 11:28:16;;;;;;;13.45;2.15;;;10.50;99.90;;;;;;4958718;28;20039;-82
2022/01/29 11:30:47;;;;;;;5.72;2.50;;;10.50;99.90;;;;;;4956560;28;20080;-82
2022/01/29 11:33:13;;;;;;;8.45;2.00;;;10.50;99.90;;;;;;4955948;28;20544;-82
2022/01/29 11:35:51;;;;;;;6.35;1.45;;;10.40;99.90;;;;;;4955394;29;20051;-82
2022/01/29 11:38:33;;;;;;;8.80;1.95;;;10.40;99.90;;;;;;4956785;29;20082;-82
2022/01/29 11:41:01;;;;;;;;;;;10.50;99.90;;;;;;4956759;29;20065;-83
2022/01/29 11:43:29;;;;;;;12.40;2.55;;;10.50;99.90;;;;;;4956464;29;20377;-82
2022/01/29 11:46:17;;;;;;;8.50;2.05;;;10.50;99.90;;;;;;4957554;29;20054;-82
2022/01/29 11:48:56;;;;;;;10.23;3.28;;;10.50;99.90;;;;;;4940354;29;20051;-81
2022/01/29 11:52:00;;;;;;;6.65;2.58;;;10.50;99.90;;;;;;4955313;29;20089;-82
2022/01/29 11:54:27;;;;;;;10.18;2.55;;;10.50;99.90;;;;;;4903126;29;20219;-82
2022/01/29 11:57:08;;;;;;;5.75;2.55;;;10.50;99.90;;;;;;4917734;29;20058;-82
2022/01/29 11:59:34;;;;;;;9.05;2.05;;;10.50;99.90;;;;;;4922994;29;20181;-82
2022/01/29 12:02:03;;;;;;;7.65;2.50;;;10.50;99.90;;;;;;4954344;29;20509;-82
2022/01/29 12:05:06;;;;;;;5.03;1.48;;;10.60;99.90;;;;;;4955012;29;20066;-82
2022/01/29 12:07:36;;;;;;;3.30;0.98;;;10.70;99.90;;;;;;4934945;29;20062;-82
2022/01/29 12:10:05;;;;;;;2.30;1.38;;;10.80;99.90;;;;;;4956066;29;20058;-82
2022/01/29 12:12:33;;;;;;;8.00;2.47;;;10.70;99.90;;;;;;4954381;29;20057;-82
2022/01/29 12:15:11;;;;;;;9.68;1.90;;;10.80;99.90;;;;;;4953401;29;20058;-82
2022/01/29 12:17:50;;;;;;;4.75;1.40;;;10.80;99.90;;;;;;4954183;28;20486;-82
2022/01/29 12:20:20;;;;;;;5.93;1.42;;;10.80;99.90;;;;;;4938315;29;20485;-82
2022/01/29 12:22:48;;;;;;;9.18;2.65;;;10.80;99.90;;;;;;4954852;29;20066;-83
2022/01/29 12:25:16;;;;;;;2.08;1.40;;;10.80;99.90;;;;;;4955873;28;20047;-82
2022/01/29 12:27:48;;;;;;;3.15;1.00;;;10.80;99.90;;;;;;4954801;29;20389;-82
2022/01/29 12:30:30;;;;;;;6.57;1.43;;;10.80;99.90;;;;;;4953417;28;20089;-83
2022/01/29 12:33:08;;;;;;;5.85;1.67;;;10.70;99.90;;;;;;4953982;29;20298;-82
2022/01/29 12:35:41;;;;;;;6.72;1.75;;;10.80;99.90;;;;;;4953113;29;20122;-82
2022/01/29 12:38:12;;;;;;;9.57;1.30;;;10.80;99.90;;;;;;4954928;29;20445;-82
2022/01/29 12:40:40;;;;;;;8.65;1.90;;;10.80;99.90;;;;;;4954950;28;20176;-82
2022/01/29 12:43:22;;;;;;;8.40;1.58;;;10.80;99.90;;;;;;4936941;29;20051;-82
2022/01/29 12:45:49;;;;;;;6.85;2.30;;;10.80;99.90;;;;;;4953654;29;20126;-83
2022/01/29 12:48:15;;;;;;;7.00;1.92;;;10.80;99.90;;;;;;4954079;29;20501;-82
2022/01/29 12:50:42;;;;;;;11.05;3.08;;;10.80;99.90;;;;;;4953274;29;20049;-82
2022/01/29 12:53:16;;;;;;;10.23;2.67;;;10.80;99.90;;;;;;4953779;29;20047;-83